Time;durP1;ratioP1;P1;durP2;ratioP2;P2;SDS_P1;SDS_P2;PMS_P1;PMS_P2;Temp;Humidity;BMP_temperature;BMP_pressure;BME280_temperature;BME280_humidity;BME280_pressure;Samples;Min_cycle;Max_cycle;Signal;HPM_P1;HPM_P2
2023/08/16 00:02:19;;;;;;;0.25;0.25;;;;;;;;;;5093434;28;20060;-75
2023/08/16 00:04:45;;;;;;;0.47;0.20;;;;;;;;;;5092321;28;20519;-76
2023/08/16 00:07:11;;;;;;;0.30;0.20;;;;;;;;;;5093445;28;20496;-76
2023/08/16 00:09:38;;;;;;;0.25;0.25;;;;;;;;;;5091699;28;20024;-76
2023/08/16 00:12:06;;;;;;;0.15;0.15;;;;;;;;;;5092601;28;20036;-77
2023/08/16 00:14:32;;;;;;;0.30;0.30;;;;;;;;;;5092918;28;20028;-77
2023/08/16 00:16:58;;;;;;;0.10;0.10;;;;;;;;;;5093326;28;20028;-75
2023/08/16 00:19:24;;;;;;;0.20;0.20;;;;;;;;;;5092551;28;20495;-76
2023/08/16 00:21:51;;;;;;;0.47;0.40;;;;;;;;;;5093404;28;20028;-76
2023/08/16 00:24:17;;;;;;;0.20;0.20;;;;;;;;;;5093029;28;20020;-77
2023/08/16 00:26:42;;;;;;;0.63;0.63;;;;;;;;;;5093412;28;20030;-77
2023/08/16 00:29:08;;;;;;;0.22;0.22;;;;;;;;;;5093162;28;20024;-76
2023/08/16 00:31:34;;;;;;;0.20;0.20;;;;;;;;;;5093527;28;20036;-76
2023/08/16 00:34:00;;;;;;;0.40;0.40;;;;;;;;;;5093160;28;20032;-76
2023/08/16 00:36:26;;;;;;;0.20;0.20;;;;;;;;;;5093161;28;20066;-76
2023/08/16 00:38:52;;;;;;;0.03;0.03;;;;;;;;;;5093086;28;20036;-77
2023/08/16 00:41:19;;;;;;;0.00;0.00;;;;;;;;;;5093144;28;20077;-76
2023/08/16 00:43:45;;;;;;;0.35;0.35;;;;;;;;;;5092605;28;20115;-77
2023/08/16 00:46:12;;;;;;;0.10;0.10;;;;;;;;;;5093102;28;20063;-76
2023/08/16 00:48:39;;;;;;;0.15;0.15;;;;;;;;;;5092537;28;20016;-76
2023/08/16 00:51:06;;;;;;;0.20;0.20;;;;;;;;;;5092984;28;20031;-76
2023/08/16 00:53:32;;;;;;;0.10;0.10;;;;;;;;;;5091617;28;20112;-76
2023/08/16 00:55:59;;;;;;;0.00;0.00;;;;;;;;;;5092488;28;20035;-76
2023/08/16 00:58:26;;;;;;;0.05;0.05;;;;;;;;;;5091946;28;20032;-76
2023/08/16 01:00:52;;;;;;;0.40;0.30;;;;;;;;;;5092789;28;20020;-76
2023/08/16 01:03:18;;;;;;;0.10;0.10;;;;;;;;;;5092181;28;20024;-76
2023/08/16 01:05:44;;;;;;;0.52;0.50;;;;;;;;;;5092451;28;20027;-76
2023/08/16 01:08:10;;;;;;;0.00;0.00;;;;;;;;;;5092345;28;20380;-76
2023/08/16 01:10:42;;;;;;;0.20;0.20;;;;;;;;;;5092276;28;20422;-76
2023/08/16 01:13:10;;;;;;;0.30;0.30;;;;;;;;;;5091773;28;20089;-76
2023/08/16 01:15:39;;;;;;;0.10;0.10;;;;;;;;;;5092287;28;20104;-76
2023/08/16 01:18:05;;;;;;;0.10;0.10;;;;;;;;;;5091924;28;20086;-76
2023/08/16 01:20:31;;;;;;;0.10;0.10;;;;;;;;;;5091852;28;20035;-76
2023/08/16 01:22:57;;;;;;;0.10;0.10;;;;;;;;;;5092474;28;20024;-76
2023/08/16 01:25:29;;;;;;;0.30;0.28;;;;;;;;;;5092273;28;20021;-76
2023/08/16 01:27:56;;;;;;;0.20;0.20;;;;;;;;;;5092005;28;20020;-75
2023/08/16 01:30:23;;;;;;;0.10;0.10;;;;;;;;;;5092606;28;20038;-76
2023/08/16 01:32:49;;;;;;;0.28;0.28;;;;;;;;;;5092309;28;20469;-76
2023/08/16 01:35:15;;;;;;;2.40;0.55;;;;;;;;;;5092250;28;20119;-76
2023/08/16 01:37:42;;;;;;;0.10;0.10;;;;;;;;;;5092205;28;20024;-75
2023/08/16 01:40:09;;;;;;;0.30;0.30;;;;;;;;;;5092173;28;20584;-76
2023/08/16 01:42:37;;;;;;;0.10;0.10;;;;;;;;;;5091851;28;20070;-76
2023/08/16 01:45:04;;;;;;;0.50;0.30;;;;;;;;;;5092233;28;20063;-77
2023/08/16 01:47:30;;;;;;;0.00;0.00;;;;;;;;;;5092327;28;20529;-75
2023/08/16 01:49:57;;;;;;;0.20;0.20;;;;;;;;;;5092241;28;20028;-76
2023/08/16 01:52:26;;;;;;;0.13;0.13;;;;;;;;;;5091862;28;20030;-76
2023/08/16 01:54:52;;;;;;;0.20;0.20;;;;;;;;;;5092001;28;20031;-76
2023/08/16 01:57:18;;;;;;;0.10;0.10;;;;;;;;;;5091525;28;20048;-76
2023/08/16 01:59:44;;;;;;;0.35;0.30;;;;;;;;;;5091575;28;20554;-75
2023/08/16 02:02:10;;;;;;;0.25;0.22;;;;;;;;;;5094448;28;20088;-76
2023/08/16 02:04:36;;;;;;;0.00;0.00;;;;;;;;;;5095891;28;20116;-76
2023/08/16 02:07:02;;;;;;;0.28;0.28;;;;;;;;;;5096214;28;20031;-76
2023/08/16 02:09:28;;;;;;;0.85;0.40;;;;;;;;;;5095735;28;20097;-77
2023/08/16 02:11:53;;;;;;;0.00;0.00;;;;;;;;;;5094869;28;20020;-76
2023/08/16 02:14:19;;;;;;;0.10;0.10;;;;;;;;;;5095716;28;20118;-76
2023/08/16 02:16:45;;;;;;;0.10;0.10;;;;;;;;;;5095865;28;20082;-76
2023/08/16 02:19:12;;;;;;;0.20;0.20;;;;;;;;;;5094974;28;20059;-76
2023/08/16 02:21:38;;;;;;;0.10;0.10;;;;;;;;;;5095485;28;20383;-76
2023/08/16 02:24:04;;;;;;;0.15;0.15;;;;;;;;;;5095177;28;20107;-76
2023/08/16 02:26:30;;;;;;;0.00;0.00;;;;;;;;;;5095217;28;20048;-76
2023/08/16 02:28:56;;;;;;;0.10;0.10;;;;;;;;;;5094930;28;20024;-76
2023/08/16 02:31:22;;;;;;;0.20;0.20;;;;;;;;;;5095132;28;20035;-76
2023/08/16 02:33:48;;;;;;;0.03;0.03;;;;;;;;;;5095496;28;20024;-76
2023/08/16 02:36:14;;;;;;;0.20;0.20;;;;;;;;;;5095630;28;20509;-76
2023/08/16 02:38:40;;;;;;;0.10;0.10;;;;;;;;;;5094849;28;20036;-75
2023/08/16 02:41:06;;;;;;;0.30;0.20;;;;;;;;;;5094343;28;20115;-76
2023/08/16 02:43:32;;;;;;;0.28;0.28;;;;;;;;;;5094895;28;20024;-77
2023/08/16 02:45:58;;;;;;;0.15;0.05;;;;;;;;;;5095050;28;20035;-76
2023/08/16 02:48:24;;;;;;;0.05;0.05;;;;;;;;;;5095011;28;20501;-76
2023/08/16 02:50:50;;;;;;;0.10;0.10;;;;;;;;;;5094991;28;20032;-76
2023/08/16 02:53:16;;;;;;;0.20;0.20;;;;;;;;;;5094741;28;20367;-76
2023/08/16 02:55:42;;;;;;;0.10;0.10;;;;;;;;;;5094289;28;20028;-77
2023/08/16 02:58:08;;;;;;;0.28;0.28;;;;;;;;;;5095122;28;20133;-77
2023/08/16 03:00:34;;;;;;;0.40;0.20;;;;;;;;;;5094398;28;20596;-76
2023/08/16 03:03:00;;;;;;;0.05;0.05;;;;;;;;;;5094910;28;20146;-76
2023/08/16 03:05:26;;;;;;;0.10;0.10;;;;;;;;;;5095102;28;20164;-76
2023/08/16 03:07:53;;;;;;;0.00;0.00;;;;;;;;;;5094017;28;20064;-77
2023/08/16 03:10:19;;;;;;;0.10;0.10;;;;;;;;;;5094866;28;20032;-76
2023/08/16 03:12:45;;;;;;;0.50;0.28;;;;;;;;;;5094098;28;20036;-76
2023/08/16 03:15:11;;;;;;;0.13;0.13;;;;;;;;;;5094207;28;20077;-76
2023/08/16 03:17:37;;;;;;;0.47;0.47;;;;;;;;;;5094235;28;20024;-77
2023/08/16 03:20:03;;;;;;;0.35;0.35;;;;;;;;;;5094164;28;20052;-76
2023/08/16 03:22:29;;;;;;;0.15;0.10;;;;;;;;;;5094263;28;20035;-76
2023/08/16 03:24:55;;;;;;;0.20;0.20;;;;;;;;;;5094214;28;20442;-76
2023/08/16 03:27:21;;;;;;;0.20;0.20;;;;;;;;;;5094601;28;20020;-76
2023/08/16 03:29:47;;;;;;;0.10;0.10;;;;;;;;;;5094473;28;20028;-77
2023/08/16 03:32:13;;;;;;;0.32;0.32;;;;;;;;;;5094216;28;20485;-76
2023/08/16 03:34:39;;;;;;;0.63;0.40;;;;;;;;;;5094166;28;20539;-76
2023/08/16 03:37:05;;;;;;;0.13;0.13;;;;;;;;;;5093704;28;20048;-76
2023/08/16 03:39:31;;;;;;;0.10;0.10;;;;;;;;;;5094098;28;20028;-76
2023/08/16 03:41:57;;;;;;;0.10;0.10;;;;;;;;;;5093876;28;20054;-76
2023/08/16 03:44:23;;;;;;;0.10;0.10;;;;;;;;;;5093838;28;20081;-76
2023/08/16 03:46:50;;;;;;;0.20;0.20;;;;;;;;;;5094191;28;20055;-76
2023/08/16 03:49:16;;;;;;;0.20;0.20;;;;;;;;;;5093530;28;20053;-75
2023/08/16 03:51:42;;;;;;;0.10;0.10;;;;;;;;;;5073505;28;20058;-76
2023/08/16 03:54:08;;;;;;;0.32;0.25;;;;;;;;;;5080965;28;20483;-76
2023/08/16 03:56:34;;;;;;;0.20;0.20;;;;;;;;;;5094077;28;20162;-77
2023/08/16 03:59:00;;;;;;;0.00;0.00;;;;;;;;;;5093458;28;20036;-74
2023/08/16 04:01:26;;;;;;;0.30;0.30;;;;;;;;;;5093626;28;20035;-75
2023/08/16 04:03:52;;;;;;;0.10;0.10;;;;;;;;;;5093707;28;20045;-76
2023/08/16 04:06:20;;;;;;;0.30;0.30;;;;;;;;;;5093255;28;20605;-77
2023/08/16 04:08:46;;;;;;;0.45;0.25;;;;;;;;;;5093674;28;20031;-76
2023/08/16 04:11:12;;;;;;;0.20;0.20;;;;;;;;;;5093555;28;20024;-76
2023/08/16 04:13:38;;;;;;;1.27;0.65;;;;;;;;;;5093641;28;20526;-76
2023/08/16 04:16:04;;;;;;;0.35;0.20;;;;;;;;;;5093510;28;20143;-76
2023/08/16 04:18:30;;;;;;;0.20;0.20;;;;;;;;;;5093199;28;20518;-76
2023/08/16 04:20:56;;;;;;;0.10;0.10;;;;;;;;;;5074754;28;20046;-75
2023/08/16 04:23:23;;;;;;;0.20;0.20;;;;;;;;;;5092741;28;20077;-74
2023/08/16 04:25:49;;;;;;;0.20;0.20;;;;;;;;;;5093084;28;20036;-75
2023/08/16 04:28:15;;;;;;;0.75;0.30;;;;;;;;;;5093342;28;20028;-81
2023/08/16 04:30:41;;;;;;;0.22;0.22;;;;;;;;;;5093140;28;20035;-81
2023/08/16 04:33:07;;;;;;;0.32;0.32;;;;;;;;;;5093339;28;20069;-81
2023/08/16 04:35:33;;;;;;;0.45;0.45;;;;;;;;;;5092971;28;20036;-76
2023/08/16 04:37:59;;;;;;;0.30;0.30;;;;;;;;;;5092849;28;20020;-76
2023/08/16 04:40:25;;;;;;;0.32;0.32;;;;;;;;;;5092822;28;20502;-76
2023/08/16 04:42:51;;;;;;;0.05;0.05;;;;;;;;;;5093183;28;20400;-76
2023/08/16 04:45:17;;;;;;;0.10;0.10;;;;;;;;;;5092516;28;20031;-76
2023/08/16 04:47:43;;;;;;;0.28;0.28;;;;;;;;;;5093059;28;20024;-76
2023/08/16 04:50:10;;;;;;;0.38;0.30;;;;;;;;;;5092140;28;20103;-76
2023/08/16 04:52:37;;;;;;;0.00;0.00;;;;;;;;;;5092525;28;20512;-75
2023/08/16 04:55:03;;;;;;;0.10;0.10;;;;;;;;;;5092551;28;20028;-76
2023/08/16 04:57:29;;;;;;;0.10;0.10;;;;;;;;;;5092834;28;20093;-74
2023/08/16 04:59:55;;;;;;;0.22;0.20;;;;;;;;;;5092236;28;20040;-76
2023/08/16 05:02:21;;;;;;;0.30;0.30;;;;;;;;;;5092441;28;20032;-75
2023/08/16 05:04:48;;;;;;;0.13;0.10;;;;;;;;;;5092372;28;20027;-76
2023/08/16 05:07:13;;;;;;;0.10;0.10;;;;;;;;;;5092139;28;20103;-77
2023/08/16 05:09:40;;;;;;;0.10;0.10;;;;;;;;;;5074494;28;20102;-77
2023/08/16 05:12:06;;;;;;;0.10;0.10;;;;;;;;;;5092437;28;20028;-76
2023/08/16 05:14:32;;;;;;;0.20;0.20;;;;;;;;;;5091957;28;20049;-76
2023/08/16 05:16:58;;;;;;;0.10;0.10;;;;;;;;;;5092194;28;20353;-75
2023/08/16 05:19:23;;;;;;;0.30;0.30;;;;;;;;;;5057230;28;20048;-76
2023/08/16 05:21:49;;;;;;;0.10;0.10;;;;;;;;;;5052074;28;20056;-76
2023/08/16 05:24:15;;;;;;;0.70;0.55;;;;;;;;;;5052017;28;20025;-76
2023/08/16 05:26:41;;;;;;;0.20;0.20;;;;;;;;;;5052161;28;20037;-76
2023/08/16 05:29:07;;;;;;;0.32;0.30;;;;;;;;;;5052204;28;20553;-76
2023/08/16 05:31:33;;;;;;;0.32;0.32;;;;;;;;;;5052272;28;20036;-76
2023/08/16 05:33:59;;;;;;;0.20;0.20;;;;;;;;;;5051861;28;20070;-76
2023/08/16 05:36:28;;;;;;;0.65;0.63;;;;;;;;;;5054983;28;20522;-76
2023/08/16 05:38:54;;;;;;;0.10;0.10;;;;;;;;;;5056030;28;20025;-76
2023/08/16 05:41:20;;;;;;;0.10;0.10;;;;;;;;;;5056208;28;20025;-77
2023/08/16 05:43:46;;;;;;;0.20;0.20;;;;;;;;;;5054907;28;20482;-75
2023/08/16 05:46:12;;;;;;;0.10;0.10;;;;;;;;;;5056020;28;20029;-75
2023/08/16 05:48:38;;;;;;;0.28;0.28;;;;;;;;;;5055662;28;20512;-76
2023/08/16 05:51:04;;;;;;;0.10;0.10;;;;;;;;;;5056146;28;20048;-76
2023/08/16 05:53:30;;;;;;;0.10;0.10;;;;;;;;;;5055072;28;20029;-78
2023/08/16 05:55:56;;;;;;;0.40;0.40;;;;;;;;;;5055512;28;20059;-78
2023/08/16 05:58:22;;;;;;;0.10;0.10;;;;;;;;;;5055509;28;20032;-78
2023/08/16 06:00:48;;;;;;;0.20;0.20;;;;;;;;;;5055511;28;20041;-78
2023/08/16 06:03:15;;;;;;;0.10;0.10;;;;;;;;;;5055099;28;20041;-77
2023/08/16 06:05:41;;;;;;;0.47;0.47;;;;;;;;;;5055921;28;20025;-78
2023/08/16 06:08:08;;;;;;;0.10;0.10;;;;;;;;;;5055485;28;20482;-78
2023/08/16 06:10:34;;;;;;;0.10;0.10;;;;;;;;;;5055471;28;20105;-79
2023/08/16 06:13:00;;;;;;;0.10;0.10;;;;;;;;;;5055211;28;20104;-78
2023/08/16 06:15:26;;;;;;;0.10;0.10;;;;;;;;;;5055266;28;20110;-78
2023/08/16 06:17:52;;;;;;;0.10;0.10;;;;;;;;;;5055583;28;20032;-78
2023/08/16 06:20:18;;;;;;;0.30;0.20;;;;;;;;;;5095410;28;20493;-78
2023/08/16 06:22:44;;;;;;;0.10;0.10;;;;;;;;;;5095764;28;20116;-79
2023/08/16 06:25:10;;;;;;;0.00;0.00;;;;;;;;;;5094665;28;20440;-78
2023/08/16 06:27:36;;;;;;;0.10;0.10;;;;;;;;;;5095830;28;20407;-78
2023/08/16 06:30:03;;;;;;;0.10;0.10;;;;;;;;;;5094846;28;20089;-79
2023/08/16 06:32:29;;;;;;;0.10;0.10;;;;;;;;;;5094484;28;20034;-79
2023/08/16 06:34:55;;;;;;;0.05;0.05;;;;;;;;;;5077059;28;20107;-78
2023/08/16 06:37:21;;;;;;;1.25;0.47;;;;;;;;;;5095170;28;20522;-79
2023/08/16 06:39:47;;;;;;;0.22;0.10;;;;;;;;;;5094748;28;20106;-78
2023/08/16 06:42:13;;;;;;;0.10;0.10;;;;;;;;;;5094969;28;20020;-79
2023/08/16 06:44:40;;;;;;;0.38;0.13;;;;;;;;;;5095275;28;20447;-78
2023/08/16 06:47:06;;;;;;;0.38;0.38;;;;;;;;;;5094196;28;20127;-79
2023/08/16 06:49:32;;;;;;;0.10;0.10;;;;;;;;;;5094590;28;20477;-76
2023/08/16 06:51:58;;;;;;;0.85;0.30;;;;;;;;;;5071996;28;20031;-79
2023/08/16 06:54:24;;;;;;;0.20;0.20;;;;;;;;;;5094548;28;20102;-79
2023/08/16 06:56:50;;;;;;;0.00;0.00;;;;;;;;;;5093131;28;20040;-78
2023/08/16 06:59:16;;;;;;;0.10;0.10;;;;;;;;;;5094458;28;20151;-80
2023/08/16 07:01:42;;;;;;;0.30;0.30;;;;;;;;;;5094798;28;20108;-78
2023/08/16 07:04:08;;;;;;;0.95;0.35;;;;;;;;;;5095144;28;20502;-87
2023/08/16 07:06:34;;;;;;;0.10;0.10;;;;;;;;;;5095046;28;20035;-75
2023/08/16 07:09:00;;;;;;;0.00;0.00;;;;;;;;;;5095107;28;20530;-80
2023/08/16 07:11:26;;;;;;;0.10;0.10;;;;;;;;;;5095021;28;20035;-78
2023/08/16 07:13:52;;;;;;;0.10;0.10;;;;;;;;;;5094845;28;20481;-76
2023/08/16 07:16:19;;;;;;;0.20;0.20;;;;;;;;;;5094518;28;20030;-80
2023/08/16 07:18:45;;;;;;;0.20;0.20;;;;;;;;;;5094534;28;20056;-80
2023/08/16 07:21:12;;;;;;;0.93;0.17;;;;;;;;;;5088388;28;20058;-80
2023/08/16 07:23:38;;;;;;;0.20;0.20;;;;;;;;;;5090723;28;20501;-80
2023/08/16 07:26:04;;;;;;;0.10;0.10;;;;;;;;;;5094410;28;20036;-80
2023/08/16 07:28:30;;;;;;;0.90;0.55;;;;;;;;;;5094671;28;20024;-80
2023/08/16 07:30:56;;;;;;;0.20;0.17;;;;;;;;;;5094080;28;20020;-80
2023/08/16 07:33:22;;;;;;;0.30;0.30;;;;;;;;;;5094324;28;20095;-80
2023/08/16 07:35:49;;;;;;;0.20;0.20;;;;;;;;;;5072978;28;20030;-79
2023/08/16 07:38:15;;;;;;;0.10;0.10;;;;;;;;;;5076655;28;20028;-80
2023/08/16 07:40:46;;;;;;;0.30;0.30;;;;;;;;;;5075607;28;20502;-80
2023/08/16 07:43:12;;;;;;;0.00;0.00;;;;;;;;;;5079954;28;20394;-80
2023/08/16 07:45:38;;;;;;;0.47;0.47;;;;;;;;;;5093813;28;20062;-80
2023/08/16 07:48:04;;;;;;;0.38;0.38;;;;;;;;;;5092956;28;20032;-81
2023/08/16 07:50:30;;;;;;;0.10;0.10;;;;;;;;;;5082707;28;20025;-80
2023/08/16 07:52:56;;;;;;;0.93;0.75;;;;;;;;;;5091165;28;20032;-80
2023/08/16 07:55:29;;;;;;;0.20;0.20;;;;;;;;;;5094058;28;20023;-81
2023/08/16 07:57:54;;;;;;;0.20;0.20;;;;;;;;;;5093645;28;20031;-81
2023/08/16 08:00:21;;;;;;;0.10;0.10;;;;;;;;;;5093073;28;20036;-81
2023/08/16 08:02:48;;;;;;;0.30;0.30;;;;;;;;;;5087066;28;20136;-81
2023/08/16 08:05:15;;;;;;;0.60;0.45;;;;;;;;;;5083707;28;20040;-82
2023/08/16 08:07:41;;;;;;;0.73;0.15;;;;;;;;;;5078441;28;20024;-81
2023/08/16 08:10:07;;;;;;;0.40;0.40;;;;;;;;;;5073417;28;20047;-81
2023/08/16 08:12:33;;;;;;;0.10;0.10;;;;;;;;;;5091443;28;20031;-82
2023/08/16 08:14:59;;;;;;;0.50;0.50;;;;;;;;;;5093408;28;20023;-82
2023/08/16 08:17:25;;;;;;;0.40;0.40;;;;;;;;;;5093503;28;20525;-82
2023/08/16 08:19:52;;;;;;;0.88;0.20;;;;;;;;;;5086494;28;20060;-82
2023/08/16 08:22:18;;;;;;;0.40;0.40;;;;;;;;;;5073330;28;20016;-82
2023/08/16 08:24:44;;;;;;;0.08;0.08;;;;;;;;;;5085446;28;20484;-81
2023/08/16 08:27:11;;;;;;;0.90;0.47;;;;;;;;;;5093095;28;20024;-82
2023/08/16 08:29:38;;;;;;;0.10;0.10;;;;;;;;;;5093519;28;20033;-82
2023/08/16 08:32:04;;;;;;;0.22;0.22;;;;;;;;;;5093484;28;20495;-81
2023/08/16 08:34:30;;;;;;;0.10;0.10;;;;;;;;;;5091547;28;20028;-81
2023/08/16 08:36:58;;;;;;;0.40;0.40;;;;;;;;;;5093297;28;20461;-82
2023/08/16 08:39:26;;;;;;;0.35;0.32;;;;;;;;;;5093003;28;20032;-82
2023/08/16 08:41:52;;;;;;;0.25;0.20;;;;;;;;;;5092655;28;20400;-81
2023/08/16 08:44:20;;;;;;;0.10;0.10;;;;;;;;;;5093653;28;20397;-84
2023/08/16 08:46:47;;;;;;;2.35;0.70;;;;;;;;;;5093111;28;20107;-86
2023/08/16 08:49:15;;;;;;;0.35;0.35;;;;;;;;;;5093152;28;20028;-84
2023/08/16 08:51:42;;;;;;;0.10;0.10;;;;;;;;;;5091897;28;20017;-89
2023/08/16 08:54:08;;;;;;;0.28;0.22;;;;;;;;;;5092301;28;20432;-87
2023/08/16 08:56:35;;;;;;;0.20;0.20;;;;;;;;;;5092657;28;20090;-91
2023/08/16 08:59:02;;;;;;;0.25;0.15;;;;;;;;;;5096007;28;20035;-83
2023/08/16 09:01:29;;;;;;;0.20;0.20;;;;;;;;;;5113202;28;20031;-92
2023/08/16 09:03:56;;;;;;;0.10;0.10;;;;;;;;;;5113324;28;20015;-87
2023/08/16 09:06:22;;;;;;;0.08;0.08;;;;;;;;;;5093046;28;20522;-82
2023/08/16 09:08:48;;;;;;;0.03;0.03;;;;;;;;;;5092967;28;20032;-86
2023/08/16 09:11:15;;;;;;;0.10;0.10;;;;;;;;;;5091752;28;20082;-87
2023/08/16 09:13:41;;;;;;;0.20;0.20;;;;;;;;;;5092195;28;20480;-86
2023/08/16 09:16:07;;;;;;;1.15;0.50;;;;;;;;;;5092196;28;20139;-78
2023/08/16 09:18:33;;;;;;;0.00;0.00;;;;;;;;;;5091948;28;20074;-77
2023/08/16 09:21:01;;;;;;;0.85;0.43;;;;;;;;;;5091970;28;20447;-79
2023/08/16 09:23:27;;;;;;;0.15;0.10;;;;;;;;;;5092541;28;20024;-80
2023/08/16 09:25:53;;;;;;;0.20;0.20;;;;;;;;;;5092319;28;20055;-81
2023/08/16 09:28:20;;;;;;;0.40;0.40;;;;;;;;;;5092681;28;20472;-80
2023/08/16 09:30:46;;;;;;;0.20;0.20;;;;;;;;;;5092572;28;20016;-78
2023/08/16 09:33:17;;;;;;;0.10;0.10;;;;;;;;;;5092583;28;20051;-78
2023/08/16 09:35:45;;;;;;;0.20;0.20;;;;;;;;;;5092574;28;20051;-78
2023/08/16 09:38:13;;;;;;;0.60;0.30;;;;;;;;;;5092553;28;20043;-82
2023/08/16 09:40:47;;;;;;;0.10;0.10;;;;;;;;;;5091999;28;20512;-78
2023/08/16 09:43:13;;;;;;;0.10;0.10;;;;;;;;;;5092509;28;20408;-84
2023/08/16 09:45:40;;;;;;;0.28;0.28;;;;;;;;;;5092618;28;20024;-83
2023/08/16 09:48:08;;;;;;;0.22;0.22;;;;;;;;;;5092550;28;20050;-83
2023/08/16 09:50:35;;;;;;;0.38;0.20;;;;;;;;;;5092592;28;20100;-83
2023/08/16 09:53:04;;;;;;;0.10;0.10;;;;;;;;;;5092351;28;20028;-82
2023/08/16 09:55:31;;;;;;;0.45;0.40;;;;;;;;;;5092188;28;20500;-83
2023/08/16 09:57:58;;;;;;;0.10;0.10;;;;;;;;;;5092410;28;20028;-83
2023/08/16 10:00:25;;;;;;;0.45;0.45;;;;;;;;;;5092181;28;20558;-84
2023/08/16 10:02:52;;;;;;;0.38;0.38;;;;;;;;;;5092333;28;20031;-84
2023/08/16 10:05:18;;;;;;;0.30;0.30;;;;;;;;;;5092207;28;20099;-82
2023/08/16 10:07:47;;;;;;;0.13;0.13;;;;;;;;;;5092148;28;20081;-80
2023/08/16 10:10:13;;;;;;;0.20;0.20;;;;;;;;;;5091939;28;20038;-82
2023/08/16 10:12:39;;;;;;;0.60;0.50;;;;;;;;;;5092199;28;20016;-80
2023/08/16 10:15:05;;;;;;;0.20;0.20;;;;;;;;;;5092227;28;20523;-80
2023/08/16 10:17:33;;;;;;;0.30;0.30;;;;;;;;;;5092213;28;20027;-80
2023/08/16 10:20:04;;;;;;;0.28;0.28;;;;;;;;;;5091978;28;20579;-80
2023/08/16 10:22:37;;;;;;;0.10;0.10;;;;;;;;;;5093500;28;20060;-80
2023/08/16 10:25:17;;;;;;;0.20;0.20;;;;;;;;;;5095521;28;20054;-80
2023/08/16 10:27:44;;;;;;;0.52;0.50;;;;;;;;;;5095595;28;20085;-79
2023/08/16 10:30:17;;;;;;;0.30;0.15;;;;;;;;;;5095891;28;20054;-80
2023/08/16 10:32:43;;;;;;;0.75;0.65;;;;;;;;;;5095653;28;20044;-81
2023/08/16 10:35:10;;;;;;;0.17;0.17;;;;;;;;;;5095643;28;20111;-80
2023/08/16 10:37:37;;;;;;;0.00;0.00;;;;;;;;;;5095462;28;20073;-79
2023/08/16 10:40:03;;;;;;;0.10;0.10;;;;;;;;;;5095419;28;20040;-82
2023/08/16 10:42:29;;;;;;;0.10;0.10;;;;;;;;;;5095688;28;20029;-79
2023/08/16 10:44:55;;;;;;;0.10;0.10;;;;;;;;;;5095616;28;20036;-79
2023/08/16 10:47:31;;;;;;;1.60;0.30;;;;;;;;;;5095514;28;20070;-80
2023/08/16 10:50:00;;;;;;;0.10;0.10;;;;;;;;;;5095423;28;20491;-80
2023/08/16 10:52:27;;;;;;;0.40;0.28;;;;;;;;;;5094887;28;20024;-78
2023/08/16 10:54:54;;;;;;;0.35;0.35;;;;;;;;;;5095306;28;20547;-79
2023/08/16 10:57:25;;;;;;;0.10;0.10;;;;;;;;;;5095316;28;20052;-80
2023/08/16 11:00:01;;;;;;;0.20;0.20;;;;;;;;;;5095152;28;20044;-79
2023/08/16 11:02:30;;;;;;;0.20;0.20;;;;;;;;;;5095158;28;20095;-80
2023/08/16 11:04:56;;;;;;;0.10;0.10;;;;;;;;;;5095201;28;20024;-80
2023/08/16 11:07:23;;;;;;;0.52;0.43;;;;;;;;;;5094598;28;20077;-79
2023/08/16 11:09:49;;;;;;;0.08;0.08;;;;;;;;;;5095192;28;20111;-79
2023/08/16 11:12:17;;;;;;;0.60;0.28;;;;;;;;;;5095074;28;20020;-79
2023/08/16 11:14:44;;;;;;;0.10;0.10;;;;;;;;;;5094984;28;20024;-79
2023/08/16 11:17:14;;;;;;;0.10;0.10;;;;;;;;;;5094992;28;20385;-80
2023/08/16 11:19:40;;;;;;;0.10;0.10;;;;;;;;;;5094654;28;20048;-80
2023/08/16 11:22:09;;;;;;;0.22;0.20;;;;;;;;;;5094478;28;20484;-81
2023/08/16 11:24:35;;;;;;;0.20;0.20;;;;;;;;;;5094750;28;20063;-80
2023/08/16 11:27:06;;;;;;;0.70;0.35;;;;;;;;;;5094763;28;20039;-81
2023/08/16 11:29:32;;;;;;;0.08;0.08;;;;;;;;;;5094775;28;20125;-81
2023/08/16 11:31:59;;;;;;;0.00;0.00;;;;;;;;;;5094537;28;20477;-80
2023/08/16 11:34:26;;;;;;;0.30;0.13;;;;;;;;;;5094406;28;20028;-81
2023/08/16 11:36:51;;;;;;;0.20;0.20;;;;;;;;;;5094354;28;20028;-81
2023/08/16 11:39:18;;;;;;;0.20;0.20;;;;;;;;;;5094423;28;20089;-81
2023/08/16 11:41:44;;;;;;;0.20;0.20;;;;;;;;;;5094432;28;20028;-80
2023/08/16 11:44:12;;;;;;;0.20;0.20;;;;;;;;;;5094381;28;20042;-80
2023/08/16 11:46:42;;;;;;;0.32;0.32;;;;;;;;;;5094228;28;20116;-80
2023/08/16 11:49:08;;;;;;;0.15;0.13;;;;;;;;;;5094236;28;20032;-80
2023/08/16 11:51:38;;;;;;;0.15;0.15;;;;;;;;;;5093952;28;20077;-80
2023/08/16 11:54:05;;;;;;;0.20;0.20;;;;;;;;;;5094322;28;20030;-79
2023/08/16 11:56:31;;;;;;;0.10;0.10;;;;;;;;;;5094161;28;20039;-80
2023/08/16 11:58:59;;;;;;;0.40;0.40;;;;;;;;;;5093999;28;20024;-80
2023/08/16 12:01:27;;;;;;;0.10;0.10;;;;;;;;;;5094139;28;20032;-79
2023/08/16 12:03:53;;;;;;;0.10;0.10;;;;;;;;;;5093995;28;20024;-79
2023/08/16 12:06:22;;;;;;;0.20;0.20;;;;;;;;;;5093761;28;20028;-79
2023/08/16 12:08:49;;;;;;;0.10;0.10;;;;;;;;;;5093827;28;20039;-79
2023/08/16 12:11:15;;;;;;;1.58;0.73;;;;;;;;;;5093885;28;20028;-79
2023/08/16 12:13:41;;;;;;;6.13;0.88;;;;;;;;;;5093919;28;20099;-79
2023/08/16 12:16:07;;;;;;;0.10;0.10;;;;;;;;;;5075540;28;20438;-79
2023/08/16 12:18:33;;;;;;;0.30;0.30;;;;;;;;;;5093652;28;20048;-79
2023/08/16 12:20:59;;;;;;;0.25;0.20;;;;;;;;;;5093261;28;20130;-79
2023/08/16 12:23:25;;;;;;;5.88;0.52;;;;;;;;;;5093562;28;20358;-79
2023/08/16 12:25:52;;;;;;;0.20;0.20;;;;;;;;;;5075481;28;20028;-79
2023/08/16 12:28:18;;;;;;;0.10;0.10;;;;;;;;;;5093439;28;20020;-79
2023/08/16 12:30:44;;;;;;;0.20;0.20;;;;;;;;;;5093470;28;20039;-79
2023/08/16 12:33:12;;;;;;;0.15;0.15;;;;;;;;;;5093526;28;20024;-79
2023/08/16 12:35:38;;;;;;;0.13;0.13;;;;;;;;;;5093188;28;20019;-79
2023/08/16 12:38:03;;;;;;;0.30;0.30;;;;;;;;;;5093468;28;20111;-79
2023/08/16 12:40:30;;;;;;;0.40;0.40;;;;;;;;;;5093164;28;20170;-80
2023/08/16 12:42:57;;;;;;;0.35;0.35;;;;;;;;;;5093359;28;20020;-80
2023/08/16 12:45:23;;;;;;;0.10;0.10;;;;;;;;;;5092610;28;20038;-79
2023/08/16 12:47:50;;;;;;;0.10;0.10;;;;;;;;;;5093169;28;20381;-79
2023/08/16 12:50:16;;;;;;;0.88;0.25;;;;;;;;;;5093159;28;20028;-79
2023/08/16 12:52:42;;;;;;;0.30;0.30;;;;;;;;;;5093042;28;20107;-80
2023/08/16 12:55:08;;;;;;;0.95;0.32;;;;;;;;;;5093187;28;20165;-80
2023/08/16 12:57:34;;;;;;;0.30;0.30;;;;;;;;;;5093225;28;20020;-80
2023/08/16 13:00:00;;;;;;;0.20;0.20;;;;;;;;;;5092984;28;20032;-80
2023/08/16 13:02:26;;;;;;;0.22;0.22;;;;;;;;;;5092541;28;20026;-80
2023/08/16 13:04:52;;;;;;;0.40;0.40;;;;;;;;;;5093017;28;20036;-80
2023/08/16 13:07:18;;;;;;;0.25;0.25;;;;;;;;;;5092887;28;20024;-80
2023/08/16 13:09:44;;;;;;;0.30;0.30;;;;;;;;;;5093024;28;20024;-80
2023/08/16 13:12:10;;;;;;;0.28;0.25;;;;;;;;;;5092836;28;20020;-80
2023/08/16 13:14:36;;;;;;;0.10;0.10;;;;;;;;;;5092878;28;20028;-80
2023/08/16 13:17:03;;;;;;;0.30;0.30;;;;;;;;;;5092383;28;20020;-80
2023/08/16 13:19:29;;;;;;;0.28;0.28;;;;;;;;;;5092500;28;20048;-80
2023/08/16 13:21:57;;;;;;;0.20;0.20;;;;;;;;;;5092678;28;20031;-79
2023/08/16 13:24:23;;;;;;;0.20;0.20;;;;;;;;;;5092608;28;20550;-79
2023/08/16 13:26:49;;;;;;;0.57;0.57;;;;;;;;;;5092701;28;20024;-79
2023/08/16 13:29:15;;;;;;;0.30;0.30;;;;;;;;;;5092576;28;20161;-79
2023/08/16 13:31:41;;;;;;;0.30;0.30;;;;;;;;;;5092226;28;20020;-79
2023/08/16 13:34:07;;;;;;;0.10;0.10;;;;;;;;;;5092564;28;20053;-79
2023/08/16 13:36:34;;;;;;;0.38;0.38;;;;;;;;;;5092440;28;20115;-79
2023/08/16 13:39:00;;;;;;;0.22;0.22;;;;;;;;;;5092510;28;20032;-79
2023/08/16 13:41:26;;;;;;;0.17;0.15;;;;;;;;;;5092464;28;20024;-79
2023/08/16 13:43:52;;;;;;;0.30;0.30;;;;;;;;;;5092384;28;20023;-80
2023/08/16 13:46:18;;;;;;;0.85;0.82;;;;;;;;;;5090963;28;20039;-79
2023/08/16 13:48:44;;;;;;;0.20;0.20;;;;;;;;;;5091944;28;20036;-79
2023/08/16 13:51:10;;;;;;;0.52;0.50;;;;;;;;;;5092410;28;20444;-79
2023/08/16 13:53:36;;;;;;;1.65;0.60;;;;;;;;;;5091565;28;20067;-79
2023/08/16 13:56:02;;;;;;;0.50;0.45;;;;;;;;;;5092344;28;20034;-78
2023/08/16 13:58:29;;;;;;;0.30;0.30;;;;;;;;;;5096386;28;20399;-78
2023/08/16 14:00:55;;;;;;;0.20;0.20;;;;;;;;;;5094841;28;20032;-79
2023/08/16 14:03:21;;;;;;;0.25;0.25;;;;;;;;;;5096458;28;20024;-78
2023/08/16 14:05:47;;;;;;;0.32;0.30;;;;;;;;;;5095743;28;20038;-79
2023/08/16 14:08:13;;;;;;;2.97;0.65;;;;;;;;;;5095070;28;20107;-78
2023/08/16 14:10:40;;;;;;;0.65;0.55;;;;;;;;;;5095746;28;20028;-78
2023/08/16 14:13:06;;;;;;;0.20;0.20;;;;;;;;;;5096049;28;20023;-78
2023/08/16 14:15:32;;;;;;;0.47;0.43;;;;;;;;;;5095226;28;20028;-78
2023/08/16 14:17:58;;;;;;;0.10;0.10;;;;;;;;;;5096321;28;20028;-79
2023/08/16 14:20:24;;;;;;;0.20;0.20;;;;;;;;;;5109478;28;20039;-79
2023/08/16 14:22:50;;;;;;;0.45;0.45;;;;;;;;;;5095916;28;20074;-78
2023/08/16 14:25:16;;;;;;;0.60;0.45;;;;;;;;;;5095498;28;20460;-79
2023/08/16 14:27:42;;;;;;;0.50;0.40;;;;;;;;;;5095806;28;20047;-81
2023/08/16 14:30:08;;;;;;;0.15;0.15;;;;;;;;;;5094751;28;20032;-82
2023/08/16 14:32:34;;;;;;;0.10;0.10;;;;;;;;;;5095800;28;20068;-81
2023/08/16 14:35:00;;;;;;;0.30;0.30;;;;;;;;;;5095579;28;20024;-81
2023/08/16 14:37:26;;;;;;;0.22;0.20;;;;;;;;;;5077083;28;20024;-81
2023/08/16 14:39:52;;;;;;;0.20;0.20;;;;;;;;;;5077369;28;20028;-79